Data for 05/03/2007

Time Sea-Level Adjusted Pressure Absolute Pressure Temperature Relative Humidity Dew Point   
(mb) (inHg) (mb) (inHg) (C) (F) (%) (C) (F)
00:05 1005 29.68 834 24.63 12.1 53.8 56 3.6 38.6
00:10 1005 29.68 834 24.63 12.2 53.9 56 3.7 38.7
00:15 1004 29.65 834 24.63 12.2 54 56 3.8 38.8
00:20 1004 29.65 834 24.63 12.1 53.8 57 3.9 39
00:25 1004 29.65 833 24.6 11.7 53.1 58 3.9 39
00:30 1004 29.65 833 24.6 11.3 52.3 60 3.9 39
00:35 1004 29.65 833 24.6 10.8 51.5 61 3.7 38.6
00:40 1004 29.65 833 24.6 10.6 51.1 62 3.6 38.5
00:45 1004 29.65 833 24.6 10.6 51.1 62 3.7 38.7
00:50 1004 29.65 833 24.6 10.3 50.5 63 3.6 38.6
00:55 1004 29.65 833 24.6 10.2 50.3 63 3.5 38.3
01:00 1004 29.65 833 24.6 10.1 50.2 64 3.7 38.6
01:05 1004 29.65 833 24.6 10 49.9 64 3.5 38.3
01:10 1004 29.65 833 24.6 10 50 63 3.3 38
01:15 1004 29.65 833 24.6 10.2 50.3 63 3.5 38.2
01:20 1004 29.65 833 24.6 10.2 50.3 63 3.5 38.4
01:25 1003 29.62 833 24.6 10.2 50.4 62 3.4 38.1
01:30 1003 29.62 833 24.6 10.4 50.6 61 3.2 37.8
01:35 1003 29.62 832 24.57 10.7 51.2 60 3.3 37.9
01:40 1003 29.62 832 24.57 10.7 51.2 60 3.4 38.1
01:45 1003 29.62 833 24.6 10.7 51.2 60 3.4 38
01:50 1003 29.62 833 24.6 10.6 51.2 60 3.3 37.9
01:55 1003 29.62 832 24.57 10.5 50.8 61 3.3 37.9
02:00 1003 29.62 832 24.57 10.4 50.7 61 3.2 37.7
02:05 1003 29.62 832 24.57 10.3 50.6 62 3.3 38
02:10 1003 29.62 832 24.57 10.2 50.4 61 3.2 37.7
02:15 1003 29.62 832 24.57 10.2 50.4 62 3.4 38.1
02:20 1003 29.62 832 24.57 10 50 63 3.2 37.8
02:25 1003 29.62 832 24.57 10.3 50.5 61 3.2 37.8
02:30 1003 29.62 833 24.6 10.5 50.9 62 3.5 38.3
02:35 1003 29.62 833 24.6 10.7 51.2 59 3 37.4
02:40 1004 29.65 833 24.6 11.2 52.1 58 3.4 38.1
02:45 1004 29.65 833 24.6 11.4 52.4 60 3.9 39
02:50 1004 29.65 833 24.6 11.5 52.6 61 4.2 39.5
02:55 1004 29.65 833 24.6 11.2 52.1 62 4.2 39.5
03:00 1004 29.65 833 24.6 10.9 51.7 65 4.7 40.5
03:05 1004 29.65 833 24.6 10.9 51.6 67 5.1 41.2
03:10 1004 29.65 833 24.6 11 51.7 67 5.2 41.4
03:15 1003 29.62 833 24.6 10.8 51.4 71 5.7 42.3
03:20 1003 29.62 833 24.6 10.6 51 74 6.1 43
03:25 1003 29.62 833 24.6 10.2 50.3 73 5.6 42.1
03:30 1003 29.62 832 24.57 10.1 50.2 74 5.7 42.2
03:35 1003 29.62 833 24.6 10.1 50.1 74 5.6 42.1
03:40 1004 29.65 833 24.6 10.1 50.1 74 5.7 42.3
03:45 1004 29.65 833 24.6 9.9 49.8 76 5.9 42.6
03:50 1004 29.65 833 24.6 9.7 49.5 78 6 42.9
03:55 1004 29.65 833 24.6 9.6 49.3 78 5.9 42.6
04:00 1004 29.65 833 24.6 9.6 49.3 78 6 42.7
04:05 1004 29.65 833 24.6 9.5 49 80 6.2 43.2
04:10 1004 29.65 833 24.6 9.5 49 78 5.8 42.4
04:15 1003 29.62 832 24.57 9.6 49.3 76 5.6 42.2
04:20 1003 29.62 832 24.57 9.5 49.1 80 6.2 43.1
04:25 1003 29.62 832 24.57 9.6 49.2 78 6 42.8
04:30 1003 29.62 832 24.57 9.9 49.8 75 5.8 42.4
04:35 1003 29.62 832 24.57 9.9 49.9 78 6.2 43.2
04:40 1003 29.62 832 24.57 9.6 49.2 79 6.1 43
04:45 1003 29.62 832 24.57 9.5 49 78 5.9 42.6
04:50 1003 29.62 832 24.57 9.5 49 78 5.8 42.5
04:55 1002 29.59 832 24.57 9.5 49.1 76 5.5 41.9
05:00 1002 29.59 832 24.57 9.6 49.2 76 5.5 41.8
05:05 1002 29.59 831 24.54 9.5 49 77 5.6 42.2
05:10 1002 29.59 831 24.54 9.5 49.1 75 5.3 41.5
05:15 1002 29.59 831 24.54 9.5 49.1 77 5.6 42.1
05:20 1002 29.59 831 24.54 9.3 48.8 78 5.7 42.3
05:25 1002 29.59 831 24.54 9.2 48.6 79 5.9 42.5
05:30 1002 29.59 831 24.54 9.1 48.3 79 5.7 42.3
05:35 1002 29.59 831 24.54 9.3 48.8 75 5.1 41.3
05:40 1002 29.59 831 24.54 9.5 49.1 79 6 42.8
05:45 1002 29.59 831 24.54 9.2 48.6 77 5.5 41.9
05:50 1002 29.59 832 24.57 9.4 49 77 5.5 42
05:55 1002 29.59 832 24.57 9.5 49 77 5.6 42
06:00 1002 29.59 832 24.57 9.5 49 76 5.5 41.9
06:05 1002 29.59 832 24.57 9.5 49.1 76 5.5 42
06:10 1002 29.59 832 24.57 9.6 49.3 75 5.3 41.6
06:15 1002 29.59 832 24.57 9.7 49.5 73 5.2 41.3
06:20 1002 29.59 832 24.57 9.8 49.7 77 6.1 42.9
06:25 1002 29.59 832 24.57 9.3 48.7 79 5.8 42.5
06:30 1002 29.59 832 24.57 9.4 48.9 76 5.5 41.8
06:35 1002 29.59 832 24.57 9.4 49 79 6 42.8
06:40 1002 29.59 832 24.57 9.2 48.6 78 5.6 42.2
06:45 1002 29.59 832 24.57 9.4 48.9 79 6 42.9
06:50 1003 29.62 832 24.57 9.3 48.7 80 6 42.8
06:55 1003 29.62 832 24.57 9.1 48.4 82 6.1 43.1
07:00 1003 29.62 832 24.57 8.9 47.9 84 6.4 43.5
07:05 1003 29.62 832 24.57 8.6 47.6 85 6.2 43.2
07:10 1003 29.62 832 24.57 8.6 47.5 84 6.1 43
07:15 1003 29.62 832 24.57 8.6 47.4 84 6.1 42.9
07:20 1003 29.62 832 24.57 8.7 47.6 84 6.1 43
07:25 1003 29.62 832 24.57 8.7 47.6 84 6.1 43
07:30 1003 29.62 832 24.57 8.6 47.5 85 6.2 43.1
07:35 1003 29.62 832 24.57 8.7 47.6 85 6.2 43.2
07:40 1003 29.62 832 24.57 8.7 47.7 85 6.3 43.4
07:45 1003 29.62 832 24.57 8.7 47.6 84 6.2 43.1
07:50 1003 29.62 832 24.57 8.4 47.2 85 6 42.9
07:55 1003 29.62 832 24.57 8.4 47.1 85 6.1 43
08:00 1003 29.62 832 24.57 8.4 47.1 85 6 42.8
08:05 1003 29.62 833 24.6 8.3 46.9 85 6 42.8
08:10 1003 29.62 833 24.6 8.3 46.9 86 6 42.8
08:15 1003 29.62 833 24.6 8.2 46.8 86 6 42.8
08:20 1004 29.65 833 24.6 8.2 46.8 85 5.9 42.7
08:25 1004 29.65 833 24.6 8.2 46.7 87 6.1 42.9
08:30 1004 29.65 833 24.6 8.2 46.8 85 5.9 42.7
08:35 1004 29.65 833 24.6 8.4 47 85 6 42.9
08:40 1004 29.65 833 24.6 8.2 46.8 83 5.5 42
08:45 1004 29.65 833 24.6 8 46.4 83 5.3 41.6
08:50 1004 29.65 833 24.6 7.7 45.9 84 5.2 41.4
08:55 1004 29.65 834 24.63 7.5 45.5 85 5.1 41.1
09:00 1004 29.65 834 24.63 7.3 45.2 85 5.1 41.1
09:05 1004 29.65 834 24.63 7 44.5 87 5 41
09:10 1005 29.68 834 24.63 6.6 43.9 89 4.9 40.9
09:15 1005 29.68 834 24.63 6.4 43.4 88 4.5 40.2
09:20 1005 29.68 834 24.63 5.9 42.6 90 4.3 39.7
09:25 1005 29.68 834 24.63 5.5 41.9 91 4.2 39.5
09:30 1005 29.68 834 24.63 5.5 41.9 91 4.1 39.4
09:35 1005 29.68 834 24.63 5.4 41.8 90 3.9 39
09:40 1005 29.68 834 24.63 5.5 41.8 89 3.7 38.7
09:45 1005 29.68 834 24.63 5.6 42.1 89 3.9 39
09:50 1005 29.68 834 24.63 5.7 42.2 88 3.9 39
09:55 1005 29.68 835 24.66 5.8 42.4 85 3.4 38
10:00 1005 29.68 835 24.66 5.6 42.1 87 3.6 38.5
10:05 1005 29.68 835 24.66 5.7 42.3 86 3.5 38.3
10:10 1005 29.68 835 24.66 5.8 42.4 87 3.9 38.9
10:15 1005 29.68 835 24.66 6.1 43 88 4.2 39.6
10:20 1005 29.68 835 24.66 6.4 43.5 87 4.4 39.8
10:25 1005 29.68 835 24.66 6.4 43.5 88 4.6 40.2
10:30 1006 29.71 835 24.66 6.4 43.5 87 4.4 40
10:35 1006 29.71 835 24.66 6.2 43.1 89 4.4 40
10:40 1006 29.71 835 24.66 5.9 42.6 89 4.2 39.6
10:45 1006 29.71 835 24.66 5.7 42.3 90 4.2 39.5
10:50 1006 29.71 835 24.66 5.4 41.8 89 3.8 38.8
10:55 1006 29.71 835 24.66 5.5 41.9 89 3.8 38.9
11:00 1006 29.71 835 24.66 5.4 41.8 90 3.9 38.9
11:05 1006 29.71 835 24.66 5.4 41.7 91 4 39.1
11:10 1006 29.71 835 24.66 5.5 41.9 88 3.6 38.5
11:15 1006 29.71 835 24.66 5.3 41.5 91 3.9 39
11:20 1006 29.71 835 24.66 5.5 41.9 90 4 39.2
11:25 1006 29.71 835 24.66 5.7 42.2 89 4 39.1
11:30 1006 29.71 835 24.66 5.8 42.4 89 4.1 39.4
11:35 1006 29.71 835 24.66 5.9 42.7 87 4 39.1
11:40 1006 29.71 835 24.66 6.1 43 86 3.9 39.1
11:45 1006 29.71 835 24.66 6.3 43.3 85 4 39.2
11:50 1006 29.71 835 24.66 6.2 43.1 83 3.5 38.3
11:55 1006 29.71 835 24.66 6.2 43.2 84 3.7 38.6
12:00 1006 29.71 835 24.66 6.4 43.5 84 3.9 39.1
12:05 1006 29.71 835 24.66 6.7 44.1 81 3.7 38.6
12:10 1006 29.71 835 24.66 6.8 44.2 83 4.1 39.4
12:15 1006 29.71 835 24.66 7 44.6 80 3.7 38.7
12:20 1006 29.71 835 24.66 7.1 44.7 81 4.1 39.4
12:25 1006 29.71 835 24.66 7 44.6 81 4.1 39.3
12:30 1006 29.71 835 24.66 7 44.6 81 4 39.2
12:35 1006 29.71 835 24.66 6.9 44.5 81 3.9 38.9
12:40 1006 29.71 835 24.66 6.8 44.2 81 3.8 38.8
12:45 1006 29.71 835 24.66 6.8 44.2 80 3.6 38.4
12:50 1006 29.71 836 24.69 7 44.6 79 3.7 38.6
12:55 1006 29.71 836 24.69 6.9 44.4 80 3.7 38.7
13:00 1007 29.74 836 24.69 6.7 44 79 3.4 38
13:05 1006 29.71 836 24.69 6.7 44.1 82 3.8 38.9
13:10 1006 29.71 836 24.69 6.9 44.5 81 3.9 39
13:15 1006 29.71 836 24.69 7 44.7 77 3.4 38.1
13:20 1006 29.71 836 24.69 6.8 44.3 78 3.4 38.1
13:25 1007 29.74 836 24.69 6.6 43.9 78 3.1 37.6
13:30 1007 29.74 836 24.69 6.4 43.5 78 2.9 37.2
13:35 1007 29.74 836 24.69 6.4 43.6 78 2.8 37.1
13:40 1006 29.71 836 24.69 6.6 43.9 76 2.7 36.9
13:45 1007 29.74 836 24.69 6.4 43.6 79 3.1 37.6
13:50 1007 29.74 836 24.69 6.5 43.6 80 3.2 37.8
13:55 1007 29.74 836 24.69 6.3 43.4 78 2.8 37
14:00 1007 29.74 836 24.69 6.1 42.9 81 3 37.4
14:05 1007 29.74 836 24.69 5.7 42.2 84 3.1 37.6
14:10 1007 29.74 836 24.69 5.4 41.7 86 3.2 37.7
14:15 1007 29.74 836 24.69 5.4 41.7 86 3.3 37.9
14:20 1007 29.74 836 24.69 5.5 42 87 3.5 38.4
14:25 1007 29.74 836 24.69 5.7 42.2 84 3.2 37.8
14:30 1007 29.74 837 24.72 5.4 41.7 87 3.4 38.1
14:35 1008 29.77 837 24.72 5.1 41.2 85 2.8 37
14:40 1008 29.77 837 24.72 4.2 39.6 89 2.6 36.8
14:45 1008 29.77 837 24.72 4.2 39.6 88 2.4 36.4
14:50 1008 29.77 837 24.72 4.1 39.4 87 2.1 35.9
14:55 1008 29.77 837 24.72 4.1 39.5 86 2.1 35.7
15:00 1008 29.77 837 24.72 3.9 39.1 86 1.7 35.1
15:05 1008 29.77 837 24.72 3.8 38.9 85 1.6 34.9
15:10 1008 29.77 837 24.72 3.7 38.7 86 1.6 34.9
15:15 1008 29.77 837 24.72 3.7 38.6 88 1.9 35.4
15:20 1008 29.77 837 24.72 3.6 38.6 90 2.2 36
15:25 1008 29.77 838 24.75 3.6 38.5 91 2.4 36.3
15:30 1008 29.77 838 24.75 3.9 38.9 91 2.5 36.5
15:35 1008 29.77 838 24.75 4.2 39.5 89 2.6 36.6
15:40 1009 29.8 838 24.75 4 39.3 89 2.4 36.3
15:45 1008 29.77 838 24.75 4.1 39.3 88 2.2 36
15:50 1008 29.77 838 24.75 4 39.3 87 2.1 35.8
15:55 1008 29.77 838 24.75 4.1 39.3 88 2.3 36.1
16:00 1008 29.77 838 24.75 4.2 39.5 89 2.5 36.5
16:05 1008 29.77 838 24.75 4.2 39.6 87 2.3 36.2
16:10 1008 29.77 838 24.75 4.4 39.9 88 2.5 36.5
16:15 1008 29.77 838 24.75 4.7 40.5 84 2.2 36
16:20 1008 29.77 838 24.75 5 41 84 2.6 36.7
16:25 1008 29.77 838 24.75 5 41 81 2.1 35.8
16:30 1009 29.8 838 24.75 4.9 40.8 83 2.2 35.9
16:35 1009 29.8 838 24.75 4.8 40.7 82 2.1 35.7
16:40 1009 29.8 838 24.75 5 41 81 2 35.6
16:45 1009 29.8 838 24.75 5 41 81 2.1 35.7
16:50 1009 29.8 838 24.75 5.1 41.1 80 2 35.5
16:55 1009 29.8 838 24.75 5.1 41.2 80 1.9 35.5
17:00 1009 29.8 838 24.75 5 41 79 1.7 35.1
17:05 1009 29.8 838 24.75 4.9 40.8 82 2 35.6
17:10 1009 29.8 838 24.75 5 41 80 1.8 35.3
17:15 1009 29.8 838 24.75 5.1 41.2 77 1.4 34.6
17:20 1009 29.8 838 24.75 5.1 41.2 78 1.6 34.9
17:25 1009 29.8 838 24.75 5.3 41.5 77 1.6 34.8
17:30 1009 29.8 838 24.75 5.3 41.6 77 1.6 34.9
17:35 1009 29.8 838 24.75 5.4 41.6 74 1.2 34.1
17:40 1009 29.8 838 24.75 5.3 41.5 75 1.2 34.2
17:45 1009 29.8 838 24.75 5 41 75 1 33.8
17:50 1009 29.8 838 24.75 4.5 40.2 77 0.9 33.6
17:55 1009 29.8 838 24.75 4.2 39.6 80 1.2 34.1
18:00 1009 29.8 838 24.75 4.2 39.5 80 1 33.8
18:05 1009 29.8 838 24.75 3.8 38.8 83 1.3 34.3
18:10 1009 29.8 838 24.75 3.7 38.7 83 1.1 33.9
18:15 1009 29.8 838 24.75 3.9 39 82 1.1 34
18:20 1009 29.8 838 24.75 4 39.2 82 1.2 34.2
18:25 1009 29.8 838 24.75 4.1 39.4 82 1.3 34.3
18:30 1009 29.8 838 24.75 4.1 39.4 81 1.1 33.9
18:35 1009 29.8 838 24.75 4 39.2 81 1 33.8
18:40 1009 29.8 838 24.75 4 39.3 82 1.3 34.4
18:45 1009 29.8 838 24.75 4.1 39.4 82 1.2 34.2
18:50 1008 29.77 838 24.75 4.1 39.4 83 1.4 34.6
18:55 1008 29.77 837 24.72 4.1 39.4 81 1.1 34
19:00 1008 29.77 837 24.72 4.2 39.5 80 1.1 33.9
19:05 1008 29.77 838 24.75 4.3 39.8 80 1.1 34
19:10 1009 29.8 838 24.75 4.5 40.1 81 1.5 34.7
19:15 1009 29.8 838 24.75 4.6 40.3 79 1.3 34.3
19:20 1009 29.8 838 24.75 4.7 40.4 76 0.8 33.5
19:25 1009 29.8 838 24.75 4.6 40.3 75 0.7 33.2
19:30 1009 29.8 838 24.75 4.6 40.4 76 0.7 33.3
19:35 1009 29.8 838 24.75 4.6 40.3 74 0.5 32.9
19:40 1009 29.8 838 24.75 4.7 40.5 74 0.5 32.9
19:45 1009 29.8 838 24.75 4.7 40.4 71 -0 31.9
19:50 1009 29.8 838 24.75 4.7 40.5 71 -0 32
19:55 1009 29.8 838 24.75 4.7 40.5 71 0 32
20:00 1009 29.8 838 24.75 4.7 40.5 71 -0.1 31.9
20:05 1009 29.8 838 24.75 4.8 40.7 70 -0.1 31.8
20:10 1009 29.8 838 24.75 4.8 40.6 71 -0.1 31.9
20:15 1009 29.8 838 24.75 4.7 40.5 69 -0.4 31.3
20:20 1009 29.8 838 24.75 4.6 40.3 69 -0.5 31
20:25 1009 29.8 838 24.75 4.5 40 67 -1.2 29.8
20:30 1009 29.8 838 24.75 4.4 39.9 68 -1 30.2
20:35 1009 29.8 839 24.78 4.1 39.3 71 -0.7 30.7
20:40 1009 29.8 839 24.78 3.8 38.8 70 -1.1 30
20:45 1009 29.8 839 24.78 3.7 38.6 69 -1.5 29.3
20:50 1010 29.83 839 24.78 3.7 38.6 69 -1.4 29.4
20:55 1010 29.83 839 24.78 3.7 38.6 71 -1.2 29.9
21:00 1010 29.83 839 24.78 3.7 38.6 71 -1.2 29.9
21:05 1010 29.83 839 24.78 3.6 38.5 70 -1.4 29.6
21:10 1010 29.83 839 24.78 3.5 38.2 71 -1.4 29.5
21:15 1010 29.83 839 24.78 3.3 38 72 -1.3 29.7
21:20 1010 29.83 840 24.81 3.2 37.8 73 -1.1 30.1
21:25 1010 29.83 840 24.81 3.2 37.8 72 -1.3 29.6
21:30 1011 29.85 840 24.81 3.2 37.7 72 -1.4 29.5
21:35 1011 29.85 840 24.81 3.2 37.8 71 -1.4 29.4
21:40 1011 29.85 840 24.81 3.2 37.8 71 -1.6 29.2
21:45 1011 29.85 840 24.81 3.2 37.8 70 -1.6 29
21:50 1011 29.85 840 24.81 3.3 37.9 70 -1.7 29
21:55 1011 29.85 840 24.81 3.3 37.9 72 -1.4 29.6
22:00 1010 29.83 840 24.81 3.2 37.7 72 -1.3 29.6
22:05 1011 29.85 840 24.81 3.2 37.8 73 -1.2 29.8
22:10 1010 29.83 840 24.81 3.2 37.8 72 -1.3 29.6
22:15 1011 29.85 840 24.81 3.4 38 72 -1.2 29.8
22:20 1011 29.85 840 24.81 3.4 38.2 71 -1.3 29.6
22:25 1011 29.85 840 24.81 3.4 38.2 65 -2.5 27.6
22:30 1011 29.85 840 24.81 3.5 38.3 62 -3 26.6
22:35 1011 29.85 840 24.81 3.4 38.1 63 -2.9 26.7
22:40 1011 29.85 840 24.81 3.3 38 63 -2.9 26.7
22:45 1011 29.85 840 24.81 3.3 38 67 -2.3 27.8
22:50 1011 29.85 840 24.81 3.2 37.7 69 -2 28.3
22:55 1011 29.85 840 24.81 3.1 37.6 67 -2.5 27.5
23:00 1011 29.85 840 24.81 3.1 37.5 66 -2.6 27.4
23:05 1011 29.85 840 24.81 2.8 37 67 -2.8 27
23:10 1011 29.85 840 24.81 2.8 37 68 -2.6 27.2
23:15 1011 29.85 840 24.81 2.7 36.9 67 -2.7 27.2
23:20 1011 29.85 840 24.81 2.7 36.9 67 -2.8 27
23:25 1011 29.85 840 24.81 2.7 36.9 68 -2.6 27.3
23:30 1011 29.85 840 24.81 2.5 36.6 73 -1.9 28.7
23:35 1011 29.85 840 24.81 2.4 36.3 69 -2.7 27.1
23:40 1011 29.85 840 24.81 2.6 36.6 68 -2.7 27.1
23:45 1011 29.85 840 24.81 2.6 36.7 67 -2.9 26.8
23:50 1011 29.85 840 24.81 2.6 36.8 67 -2.9 26.8
23:55 1011 29.85 840 24.81 2.3 36.1 73 -2 28.4
24:00 1011 29.85 840 24.81 1.8 35.2 77 -1.9 28.6